Time;durP1;ratioP1;P1;durP2;ratioP2;P2;SDS_P1;SDS_P2;PMS_P1;PMS_P2;Temp;Humidity;BMP_temperature;BMP_pressure;BME280_temperature;BME280_humidity;BME280_pressure;Samples;Min_cycle;Max_cycle;Signal;HPM_P1;HPM_P2
2021/10/24 00:01:34;;;;;;;17.60;9.90;;;5.30;87.30;;;;;;5075143;28;20441;-47
2021/10/24 00:04:00;;;;;;;23.42;11.15;;;5.30;87.30;;;;;;5074633;28;20041;-47
2021/10/24 00:06:26;;;;;;;18.27;11.13;;;5.30;87.20;;;;;;5074426;28;20036;-47
2021/10/24 00:08:52;;;;;;;19.98;10.05;;;5.30;87.10;;;;;;5074619;28;20043;-46
2021/10/24 00:11:17;;;;;;;23.35;11.38;;;5.30;87.20;;;;;;5074509;28;20043;-46
2021/10/24 00:13:43;;;;;;;20.05;10.00;;;5.30;87.20;;;;;;5074651;28;20020;-46
2021/10/24 00:16:08;;;;;;;17.08;10.00;;;5.30;87.40;;;;;;5074859;28;20029;-46
2021/10/24 00:18:34;;;;;;;20.90;11.02;;;5.30;87.30;;;;;;5074721;28;20028;-47
2021/10/24 00:21:00;;;;;;;21.90;10.85;;;5.30;87.10;;;;;;5056484;28;20033;-48
2021/10/24 00:23:26;;;;;;;17.08;9.43;;;5.30;87.30;;;;;;5074407;28;20377;-51
2021/10/24 00:25:51;;;;;;;16.13;9.80;;;5.20;87.50;;;;;;5074173;28;20033;-46
2021/10/24 00:28:17;;;;;;;18.63;10.50;;;5.20;87.70;;;;;;5074265;28;20461;-46
2021/10/24 00:30:43;;;;;;;22.35;10.55;;;5.20;87.80;;;;;;5074076;28;20548;-49
2021/10/24 00:33:09;;;;;;;19.85;11.77;;;5.20;87.80;;;;;;5074355;28;20051;-48
2021/10/24 00:35:34;;;;;;;21.10;10.57;;;5.20;87.70;;;;;;5074127;28;20397;-46
2021/10/24 00:38:00;;;;;;;21.85;10.10;;;5.20;87.60;;;;;;5074066;28;20016;-47
2021/10/24 00:40:27;;;;;;;21.15;10.90;;;5.20;87.80;;;;;;5074100;28;20021;-50
2021/10/24 00:42:53;;;;;;;21.20;10.95;;;5.20;87.60;;;;;;5074378;28;20029;-48
2021/10/24 00:45:23;;;;;;;22.13;11.07;;;5.20;87.70;;;;;;5073676;28;20028;-47
2021/10/24 00:47:49;;;;;;;16.00;10.20;;;5.20;87.60;;;;;;5055885;28;20032;-47
2021/10/24 00:50:15;;;;;;;16.77;11.20;;;5.20;87.80;;;;;;5074040;28;20377;-47
2021/10/24 00:52:42;;;;;;;13.43;9.73;;;5.20;87.80;;;;;;5073730;28;20073;-47
2021/10/24 00:55:08;;;;;;;18.60;10.35;;;5.20;87.70;;;;;;5074005;28;20052;-46
2021/10/24 00:57:34;;;;;;;22.42;11.32;;;5.20;87.70;;;;;;5073732;28;20165;-47
2021/10/24 01:00:04;;;;;;;21.83;11.15;;;5.20;87.60;;;;;;5073682;28;20032;-47
2021/10/24 01:02:30;;;;;;;17.33;11.93;;;5.20;87.50;;;;;;5072925;28;20507;-49
2021/10/24 01:04:56;;;;;;;18.95;9.65;;;5.20;87.60;;;;;;5073486;28;20110;-47
2021/10/24 01:07:23;;;;;;;14.65;9.80;;;5.20;87.60;;;;;;5073156;28;20082;-47
2021/10/24 01:09:49;;;;;;;24.55;11.48;;;5.20;87.50;;;;;;5073432;28;20353;-47
2021/10/24 01:12:16;;;;;;;14.32;9.20;;;5.20;87.40;;;;;;5073349;28;20074;-46
2021/10/24 01:14:42;;;;;;;22.48;12.00;;;5.20;87.40;;;;;;5073175;28;20476;-49
2021/10/24 01:17:07;;;;;;;17.80;10.40;;;5.20;87.40;;;;;;5073050;28;20028;-50
2021/10/24 01:19:33;;;;;;;17.23;10.13;;;5.30;87.40;;;;;;5073206;28;20361;-46
2021/10/24 01:21:59;;;;;;;18.42;10.63;;;5.20;87.30;;;;;;5073254;28;20091;-45
2021/10/24 01:24:25;;;;;;;21.65;10.23;;;5.20;87.40;;;;;;5072779;28;20024;-47
2021/10/24 01:26:51;;;;;;;19.55;10.50;;;5.20;87.40;;;;;;5073184;28;20059;-46
2021/10/24 01:29:16;;;;;;;14.27;9.63;;;5.20;87.40;;;;;;5072916;28;20028;-47
2021/10/24 01:31:42;;;;;;;20.50;10.23;;;5.20;87.40;;;;;;5072835;28;20025;-47
2021/10/24 01:34:08;;;;;;;18.40;11.10;;;5.20;87.50;;;;;;5073077;28;20025;-47
2021/10/24 01:36:34;;;;;;;16.63;9.75;;;5.10;87.40;;;;;;5073414;28;20025;-48
2021/10/24 01:39:00;;;;;;;20.08;10.70;;;5.10;87.50;;;;;;5074078;28;20070;-48
2021/10/24 01:41:29;;;;;;;24.75;10.93;;;5.10;87.60;;;;;;5073453;28;20099;-47
2021/10/24 01:43:55;;;;;;;21.05;10.00;;;5.00;87.70;;;;;;5073027;28;20031;-46
2021/10/24 01:46:21;;;;;;;13.90;9.55;;;5.00;87.70;;;;;;5073224;28;20031;-48
2021/10/24 01:48:48;;;;;;;25.02;11.70;;;5.00;87.70;;;;;;5073897;28;20365;-47
2021/10/24 01:51:14;;;;;;;19.92;11.68;;;5.00;87.80;;;;;;5072938;28;20048;-46
2021/10/24 01:53:43;;;;;;;18.20;10.15;;;4.90;87.90;;;;;;5073191;28;20044;-47
2021/10/24 01:56:09;;;;;;;16.70;9.98;;;4.90;88.00;;;;;;5073168;28;20023;-48
2021/10/24 01:58:35;;;;;;;16.92;10.43;;;4.90;88.00;;;;;;5073031;28;20028;-50
2021/10/24 02:01:03;;;;;;;13.82;9.05;;;4.90;88.00;;;;;;5073022;28;20464;-47
2021/10/24 02:03:29;;;;;;;19.05;11.10;;;4.80;88.00;;;;;;5072975;28;20512;-47
2021/10/24 02:05:55;;;;;;;16.55;9.65;;;4.80;88.10;;;;;;5072757;28;20124;-47
2021/10/24 02:08:21;;;;;;;17.05;10.40;;;4.80;88.10;;;;;;5073056;28;20021;-47
2021/10/24 02:10:47;;;;;;;25.52;11.10;;;4.80;88.00;;;;;;5073019;28;20417;-47
2021/10/24 02:13:13;;;;;;;23.73;10.85;;;4.80;88.00;;;;;;5072907;28;20024;-46
2021/10/24 02:15:40;;;;;;;24.00;11.65;;;4.80;88.00;;;;;;5075104;28;20055;-48
2021/10/24 02:18:09;;;;;;;22.02;11.10;;;4.80;88.10;;;;;;5076794;28;20024;-48
2021/10/24 02:20:36;;;;;;;21.30;10.20;;;4.80;88.10;;;;;;5076680;28;20098;-47
2021/10/24 02:23:04;;;;;;;22.58;10.43;;;4.80;88.10;;;;;;5076869;28;20538;-46
2021/10/24 02:25:31;;;;;;;23.98;10.10;;;4.80;88.20;;;;;;5076557;28;20389;-49
2021/10/24 02:27:57;;;;;;;15.02;9.45;;;4.80;88.20;;;;;;5076460;28;20046;-45
2021/10/24 02:30:23;;;;;;;16.15;9.07;;;4.80;88.20;;;;;;5076522;28;20035;-46
2021/10/24 02:32:48;;;;;;;19.77;9.25;;;4.70;88.30;;;;;;5076519;28;20388;-46
2021/10/24 02:35:15;;;;;;;19.27;9.85;;;4.80;88.20;;;;;;5076486;28;20166;-46
2021/10/24 02:37:42;;;;;;;14.07;8.57;;;4.70;88.30;;;;;;5076386;28;20036;-45
2021/10/24 02:40:09;;;;;;;15.75;9.63;;;4.70;88.20;;;;;;5076447;28;20078;-45
2021/10/24 02:42:35;;;;;;;14.85;8.65;;;4.80;88.20;;;;;;5076271;28;20481;-46
2021/10/24 02:45:01;;;;;;;28.38;9.93;;;4.70;88.20;;;;;;5076518;28;20119;-49
2021/10/24 02:47:26;;;;;;;16.45;9.13;;;4.70;88.30;;;;;;5076075;28;20438;-46
2021/10/24 02:49:52;;;;;;;13.93;9.63;;;4.70;88.30;;;;;;5076056;28;20078;-47
2021/10/24 02:52:18;;;;;;;16.27;8.98;;;4.60;88.30;;;;;;5076093;28;20024;-47
2021/10/24 02:54:44;;;;;;;19.83;8.95;;;4.60;88.30;;;;;;5076497;28;20028;-46
2021/10/24 02:57:10;;;;;;;13.88;9.55;;;4.60;88.50;;;;;;5076075;28;20028;-48
2021/10/24 02:59:36;;;;;;;18.75;9.73;;;4.50;88.60;;;;;;5076191;28;20028;-47
2021/10/24 03:02:02;;;;;;;15.70;9.00;;;4.50;88.60;;;;;;5075956;28;20031;-48
2021/10/24 03:04:28;;;;;;;17.80;9.15;;;4.50;88.60;;;;;;5076077;28;20032;-48
2021/10/24 03:06:54;;;;;;;15.05;8.25;;;4.50;88.50;;;;;;5075691;28;20412;-46
2021/10/24 03:09:20;;;;;;;18.20;10.15;;;4.40;88.50;;;;;;5076004;28;20052;-46
2021/10/24 03:11:46;;;;;;;15.25;9.60;;;4.50;88.70;;;;;;5057705;28;20029;-46
2021/10/24 03:14:13;;;;;;;16.35;8.80;;;4.50;88.70;;;;;;5076472;28;20021;-48
2021/10/24 03:16:39;;;;;;;16.98;9.65;;;4.40;88.70;;;;;;5076460;28;20032;-46
2021/10/24 03:19:05;;;;;;;17.38;10.23;;;4.40;88.80;;;;;;5076293;28;20127;-45
2021/10/24 03:21:31;;;;;;;17.98;9.60;;;4.40;89.00;;;;;;5076035;28;20056;-46
2021/10/24 03:24:01;;;;;;;20.75;9.45;;;4.40;89.00;;;;;;5076518;28;20056;-45
2021/10/24 03:26:27;;;;;;;16.43;9.57;;;4.40;88.90;;;;;;5075660;28;20024;-45
2021/10/24 03:28:54;;;;;;;14.18;8.73;;;4.40;88.90;;;;;;5075615;28;20795;-46
2021/10/24 03:31:19;;;;;;;16.88;8.48;;;4.40;88.80;;;;;;5075503;28;20078;-49
2021/10/24 03:33:46;;;;;;;11.88;8.25;;;4.40;88.80;;;;;;5075429;28;20021;-47
2021/10/24 03:36:11;;;;;;;15.85;8.77;;;4.40;88.80;;;;;;5075775;28;20402;-46
2021/10/24 03:38:37;;;;;;;14.75;9.10;;;4.40;88.80;;;;;;5075396;28;20104;-46
2021/10/24 03:41:03;;;;;;;18.60;10.35;;;4.40;88.80;;;;;;5075417;28;20020;-47
2021/10/24 03:43:29;;;;;;;16.92;8.48;;;4.40;88.80;;;;;;5075226;28;20118;-50
2021/10/24 03:45:55;;;;;;;20.63;11.40;;;4.50;88.80;;;;;;5075260;28;20044;-49
2021/10/24 03:48:20;;;;;;;21.83;9.45;;;4.50;88.80;;;;;;5075291;28;20078;-47
2021/10/24 03:50:46;;;;;;;12.05;8.02;;;4.40;88.90;;;;;;5075310;28;20032;-46
2021/10/24 03:53:12;;;;;;;12.00;7.80;;;4.40;88.80;;;;;;5075212;28;20035;-46
2021/10/24 03:55:38;;;;;;;15.10;8.05;;;4.40;88.90;;;;;;5075431;28;20056;-47
2021/10/24 03:58:04;;;;;;;16.63;8.88;;;4.40;88.90;;;;;;5075165;28;20461;-46
2021/10/24 04:00:29;;;;;;;14.15;7.93;;;4.40;88.90;;;;;;5074919;28;20036;-49
2021/10/24 04:03:05;;;;;;;16.38;8.05;;;4.30;89.00;;;;;;5074825;28;20027;-45
2021/10/24 04:05:32;;;;;;;14.50;7.88;;;4.30;89.10;;;;;;5074258;28;20097;-45
2021/10/24 04:07:58;;;;;;;12.60;7.95;;;4.30;89.20;;;;;;5074741;28;20073;-47
2021/10/24 04:10:25;;;;;;;12.45;7.95;;;4.30;89.20;;;;;;5074575;28;20564;-45
2021/10/24 04:12:51;;;;;;;16.65;8.73;;;4.30;89.10;;;;;;5074799;28;20133;-45
2021/10/24 04:15:18;;;;;;;13.05;7.68;;;4.30;89.10;;;;;;5074535;28;20506;-45
2021/10/24 04:17:45;;;;;;;18.60;9.75;;;4.30;89.30;;;;;;5074296;28;20021;-48
2021/10/24 04:20:15;;;;;;;15.63;8.45;;;4.30;89.20;;;;;;5074777;28;20452;-47
2021/10/24 04:22:40;;;;;;;14.82;8.63;;;4.30;89.30;;;;;;5074356;28;20107;-50
2021/10/24 04:25:08;;;;;;;14.23;7.95;;;4.20;89.30;;;;;;5056557;28;20104;-45
2021/10/24 04:27:34;;;;;;;16.67;8.95;;;4.20;89.50;;;;;;5074491;28;20028;-46
2021/10/24 04:30:01;;;;;;;11.48;8.13;;;4.20;89.40;;;;;;5056309;28;20112;-46
2021/10/24 04:32:27;;;;;;;14.25;8.10;;;4.20;89.50;;;;;;5074074;28;20024;-46
2021/10/24 04:34:52;;;;;;;16.42;9.05;;;4.20;89.50;;;;;;5074217;28;20027;-47
2021/10/24 04:37:18;;;;;;;12.27;8.27;;;4.20;89.40;;;;;;5073294;28;20023;-47
2021/10/24 04:39:44;;;;;;;16.13;8.23;;;4.20;89.50;;;;;;5073985;28;20028;-45
2021/10/24 04:42:09;;;;;;;12.40;7.63;;;4.10;89.50;;;;;;5074218;28;20158;-46
2021/10/24 04:44:35;;;;;;;12.88;8.48;;;4.20;89.70;;;;;;5073756;28;20025;-47
2021/10/24 04:47:01;;;;;;;15.90;9.95;;;4.10;89.70;;;;;;5074137;28;20025;-46
2021/10/24 04:49:26;;;;;;;22.02;9.10;;;4.20;89.90;;;;;;5074128;28;20024;-47
2021/10/24 04:51:52;;;;;;;15.52;8.63;;;4.20;89.70;;;;;;5074239;28;20077;-45
2021/10/24 04:54:19;;;;;;;18.30;8.93;;;4.10;89.70;;;;;;5073754;28;20021;-47
2021/10/24 04:56:45;;;;;;;14.48;9.05;;;4.10;89.80;;;;;;5073970;28;20032;-46
2021/10/24 04:59:11;;;;;;;21.38;9.52;;;4.10;90.00;;;;;;5073665;28;20491;-46
2021/10/24 05:01:37;;;;;;;13.10;8.45;;;4.20;89.90;;;;;;5073718;28;20039;-47
2021/10/24 05:04:02;;;;;;;12.55;8.13;;;4.20;89.90;;;;;;5073931;28;20089;-46
2021/10/24 05:06:29;;;;;;;17.67;9.10;;;4.20;89.80;;;;;;5073556;28;20056;-46
2021/10/24 05:08:54;;;;;;;14.93;8.38;;;4.20;89.90;;;;;;5055557;28;20032;-46
2021/10/24 05:11:20;;;;;;;18.65;8.38;;;4.20;89.80;;;;;;5073708;28;20548;-46
2021/10/24 05:13:46;;;;;;;13.10;9.18;;;4.20;89.90;;;;;;5073598;28;20103;-48
2021/10/24 05:16:11;;;;;;;17.35;8.38;;;4.20;89.80;;;;;;5055744;28;20071;-46
2021/10/24 05:18:37;;;;;;;15.90;9.30;;;4.10;89.90;;;;;;5073317;28;20025;-46
2021/10/24 05:21:02;;;;;;;18.00;9.77;;;4.10;89.90;;;;;;5073428;28;20031;-47
2021/10/24 05:23:28;;;;;;;18.60;8.25;;;4.10;90.00;;;;;;5073749;28;20383;-47
2021/10/24 05:25:54;;;;;;;20.85;9.48;;;4.10;90.00;;;;;;5073450;28;20459;-45
2021/10/24 05:28:20;;;;;;;18.42;9.88;;;4.10;90.10;;;;;;5055933;28;20052;-45
2021/10/24 05:30:45;;;;;;;14.98;9.27;;;4.10;90.10;;;;;;5073506;28;20021;-45
2021/10/24 05:33:11;;;;;;;16.73;8.40;;;4.10;90.10;;;;;;5073165;28;20039;-46
2021/10/24 05:35:36;;;;;;;18.77;9.13;;;4.10;90.10;;;;;;5073249;28;20032;-46
2021/10/24 05:38:02;;;;;;;23.40;9.40;;;4.00;90.20;;;;;;5072970;28;20058;-47
2021/10/24 05:40:28;;;;;;;19.10;9.25;;;4.10;90.30;;;;;;5073200;28;20200;-47
2021/10/24 05:42:53;;;;;;;13.90;8.93;;;4.20;90.10;;;;;;5073653;28;20469;-46
2021/10/24 05:45:20;;;;;;;20.67;8.30;;;4.10;89.90;;;;;;5072615;28;20078;-47
2021/10/24 05:47:45;;;;;;;16.30;9.38;;;4.10;89.90;;;;;;5072714;28;20024;-47
2021/10/24 05:50:11;;;;;;;20.35;9.68;;;4.10;89.90;;;;;;5072924;28;20082;-46
2021/10/24 05:52:37;;;;;;;16.33;7.80;;;4.10;90.00;;;;;;5072685;28;20067;-47
2021/10/24 05:55:04;;;;;;;14.88;9.63;;;4.10;89.90;;;;;;5072597;28;20026;-47
2021/10/24 05:57:30;;;;;;;15.90;8.10;;;4.00;90.00;;;;;;5055258;28;20031;-46
2021/10/24 05:59:56;;;;;;;17.40;8.75;;;4.00;90.00;;;;;;5072571;28;20024;-46
2021/10/24 06:02:21;;;;;;;14.20;8.48;;;4.00;90.10;;;;;;5072641;28;20035;-48
2021/10/24 06:04:47;;;;;;;20.02;10.25;;;4.00;90.10;;;;;;5072795;28;20028;-46
2021/10/24 06:07:13;;;;;;;16.05;10.15;;;4.00;90.20;;;;;;5072443;28;20068;-45
2021/10/24 06:12:39;;;;;;;16.88;8.48;;;4.10;90.00;;;;;;5072296;28;20450;-45
2021/10/24 06:15:05;;;;;;;19.35;9.57;;;3.90;89.80;;;;;;5072349;28;20384;-46
2021/10/24 06:17:31;;;;;;;15.25;8.23;;;3.90;89.80;;;;;;5072451;28;20056;-45
2021/10/24 06:19:57;;;;;;;13.20;8.18;;;4.00;90.00;;;;;;5072320;28;20438;-46
2021/10/24 06:22:23;;;;;;;12.75;8.15;;;4.00;89.70;;;;;;5072353;28;20036;-45
2021/10/24 06:24:48;;;;;;;17.10;8.38;;;3.90;89.70;;;;;;5072280;28;20060;-46
2021/10/24 06:27:14;;;;;;;17.30;9.15;;;3.90;89.90;;;;;;5072385;28;20021;-46
2021/10/24 06:29:40;;;;;;;18.80;9.52;;;4.00;90.10;;;;;;5072389;28;20439;-46
2021/10/24 06:32:06;;;;;;;13.05;9.13;;;4.10;89.80;;;;;;5072716;28;20376;-46
2021/10/24 06:34:32;;;;;;;20.40;9.43;;;4.20;89.70;;;;;;5072537;28;20472;-47
2021/10/24 06:36:57;;;;;;;20.08;8.32;;;4.10;89.40;;;;;;5072235;28;20028;-46
2021/10/24 06:39:23;;;;;;;15.55;8.55;;;4.20;89.50;;;;;;5072283;28;20407;-45
2021/10/24 06:41:49;;;;;;;14.65;8.48;;;4.20;89.40;;;;;;5072499;28;20078;-47
2021/10/24 06:44:15;;;;;;;16.88;8.50;;;4.10;89.30;;;;;;5072050;28;20028;-46
2021/10/24 06:46:41;;;;;;;13.90;9.10;;;4.10;89.40;;;;;;5072359;28;20028;-45
2021/10/24 06:49:06;;;;;;;20.63;9.88;;;4.10;89.70;;;;;;5072134;28;20024;-45
2021/10/24 06:51:32;;;;;;;16.05;8.52;;;4.10;89.70;;;;;;5072198;28;20094;-47
2021/10/24 06:53:59;;;;;;;15.57;8.70;;;4.20;89.60;;;;;;5054070;28;20024;-48
2021/10/24 06:56:24;;;;;;;17.80;9.15;;;4.30;89.40;;;;;;5072100;28;20380;-45
2021/10/24 06:58:50;;;;;;;19.00;10.20;;;4.30;89.20;;;;;;5072284;28;20021;-47
2021/10/24 07:01:16;;;;;;;16.70;8.77;;;4.30;89.10;;;;;;5073887;28;20409;-47
2021/10/24 07:03:41;;;;;;;20.85;8.25;;;4.40;88.90;;;;;;5075785;28;20186;-46
2021/10/24 07:06:07;;;;;;;15.07;8.50;;;4.50;88.90;;;;;;5075570;28;20041;-47
2021/10/24 07:08:33;;;;;;;15.57;8.27;;;4.50;88.80;;;;;;5075831;28;20449;-47
2021/10/24 07:10:58;;;;;;;16.40;9.23;;;4.60;88.50;;;;;;5075957;28;20222;-45
2021/10/24 07:13:24;;;;;;;17.40;8.13;;;4.50;88.50;;;;;;5075786;28;20103;-46
2021/10/24 07:15:50;;;;;;;12.32;7.65;;;4.70;88.50;;;;;;5075968;28;20483;-45
2021/10/24 07:18:15;;;;;;;18.85;8.98;;;4.70;88.30;;;;;;5075290;28;20032;-46
2021/10/24 07:20:41;;;;;;;15.95;8.13;;;4.80;88.20;;;;;;5075740;28;20429;-49
2021/10/24 07:23:07;;;;;;;17.40;8.13;;;4.80;88.10;;;;;;5075656;28;20060;-45
2021/10/24 07:25:33;;;;;;;18.42;8.52;;;4.90;87.90;;;;;;5075110;28;20028;-47
2021/10/24 07:27:59;;;;;;;13.77;7.70;;;4.90;87.70;;;;;;5057063;28;20150;-45
2021/10/24 07:30:25;;;;;;;23.50;9.88;;;5.10;87.60;;;;;;5075092;28;20035;-45
2021/10/24 07:32:51;;;;;;;18.52;10.25;;;5.20;87.40;;;;;;5075384;28;20016;-46
2021/10/24 07:35:16;;;;;;;17.50;10.05;;;5.30;87.10;;;;;;5075093;28;20031;-46
2021/10/24 07:37:42;;;;;;;21.00;9.30;;;5.40;87.00;;;;;;5075580;28;20021;-46
2021/10/24 07:40:09;;;;;;;17.48;9.77;;;5.60;86.60;;;;;;5075036;28;20035;-46
2021/10/24 07:42:36;;;;;;;18.85;9.13;;;5.80;85.90;;;;;;5075419;28;20028;-46
2021/10/24 07:45:03;;;;;;;15.00;9.10;;;6.00;84.50;;;;;;5074995;28;20032;-45
2021/10/24 07:47:30;;;;;;;10.95;7.68;;;6.30;83.90;;;;;;5074800;28;20409;-47
2021/10/24 07:50:01;;;;;;;13.65;8.23;;;6.50;82.90;;;;;;5075238;28;20027;-46
2021/10/24 07:52:27;;;;;;;;;;;6.80;82.00;;;;;;5075110;28;20024;-45
2021/10/24 07:54:53;;;;;;;13.80;8.57;;;6.90;81.30;;;;;;5075090;28;19912;-46
2021/10/24 07:57:19;;;;;;;13.10;7.18;;;6.90;81.80;;;;;;5074748;28;20025;-49
2021/10/24 07:59:44;;;;;;;14.30;7.43;;;7.00;81.40;;;;;;5074932;28;20119;-46
2021/10/24 08:02:11;;;;;;;11.77;7.13;;;7.00;81.20;;;;;;5074732;28;20121;-50
2021/10/24 08:04:37;;;;;;;12.82;7.32;;;7.30;79.90;;;;;;5074380;28;20025;-49
2021/10/24 08:07:04;;;;;;;14.05;6.35;;;7.70;78.90;;;;;;5074274;28;20055;-50
2021/10/24 08:09:30;;;;;;;11.25;7.28;;;7.90;78.40;;;;;;5074423;28;20020;-50
2021/10/24 08:11:57;;;;;;;12.73;6.68;;;8.30;77.20;;;;;;5073813;28;20028;-46
2021/10/24 08:14:23;;;;;;;11.18;6.25;;;9.00;75.10;;;;;;5074311;28;20089;-46
2021/10/24 08:16:49;;;;;;;12.75;5.30;;;9.60;73.50;;;;;;5074555;28;20452;-48
2021/10/24 08:19:15;;;;;;;9.18;5.13;;;10.30;69.60;;;;;;5074262;28;20047;-48
2021/10/24 08:21:41;;;;;;;7.90;4.82;;;10.80;67.40;;;;;;5074359;28;20043;-51
2021/10/24 08:24:07;;;;;;;13.93;5.68;;;10.30;68.60;;;;;;5073965;28;20094;-47
2021/10/24 08:26:34;;;;;;;7.72;4.75;;;11.20;66.00;;;;;;5074543;28;20338;-48
2021/10/24 08:29:00;;;;;;;8.05;4.38;;;12.00;62.50;;;;;;5074037;28;20073;-48
2021/10/24 08:31:27;;;;;;;16.02;5.28;;;12.30;61.50;;;;;;5074071;28;20052;-47
2021/10/24 08:33:53;;;;;;;7.72;4.47;;;12.80;59.90;;;;;;5073908;28;20145;-47
2021/10/24 08:36:20;;;;;;;11.38;4.72;;;12.80;60.10;;;;;;5074086;28;20024;-47
2021/10/24 08:38:46;;;;;;;9.05;4.32;;;13.50;57.60;;;;;;5074196;28;20021;-48
2021/10/24 08:41:12;;;;;;;11.32;4.30;;;13.50;56.60;;;;;;5075086;28;20028;-49
2021/10/24 08:43:40;;;;;;;6.93;4.07;;;13.30;57.80;;;;;;5074417;28;20025;-47
2021/10/24 08:46:07;;;;;;;5.47;3.75;;;12.80;58.30;;;;;;5073821;28;20086;-49
2021/10/24 08:48:34;;;;;;;9.65;4.07;;;12.80;59.70;;;;;;5073749;28;20024;-48
2021/10/24 08:51:01;;;;;;;6.80;4.18;;;13.30;57.30;;;;;;5073838;28;20024;-48
2021/10/24 08:53:29;;;;;;;7.85;3.70;;;13.30;57.30;;;;;;5074140;28;20465;-50
2021/10/24 08:55:55;;;;;;;6.82;3.78;;;13.30;56.40;;;;;;5055894;28;20533;-49
2021/10/24 08:58:21;;;;;;;8.95;3.83;;;13.10;57.60;;;;;;5039323;28;20472;-47
2021/10/24 09:00:48;;;;;;;7.90;4.35;;;12.80;58.40;;;;;;5074045;28;20104;-48
2021/10/24 09:03:15;;;;;;;7.50;3.58;;;13.60;55.70;;;;;;5073814;28;20032;-50
2021/10/24 09:05:43;;;;;;;7.38;3.60;;;13.40;55.60;;;;;;5073562;28;20102;-48
2021/10/24 09:08:27;;;;;;;7.07;3.53;;;14.10;53.60;;;;;;5073521;28;20048;-48
2021/10/24 09:10:59;;;;;;;6.53;3.00;;;13.80;53.10;;;;;;5073644;28;20117;-48
2021/10/24 09:13:31;;;;;;;9.30;3.25;;;13.50;53.90;;;;;;5074028;28;20032;-49
2021/10/24 09:16:04;;;;;;;7.80;3.15;;;14.00;51.90;;;;;;5073829;28;20393;-48
2021/10/24 09:18:43;;;;;;;8.25;3.10;;;13.80;53.90;;;;;;5073531;28;20035;-47
2021/10/24 09:21:14;;;;;;;5.55;2.53;;;14.30;50.70;;;;;;5074382;28;20145;-47
2021/10/24 09:23:43;;;;;;;5.40;3.08;;;13.70;52.00;;;;;;5074761;28;20459;-47
2021/10/24 09:26:23;;;;;;;6.22;2.35;;;13.80;52.10;;;;;;5073080;28;20366;-47
2021/10/24 09:29:09;;;;;;;8.63;2.65;;;13.80;51.80;;;;;;5055016;28;20020;-49
2021/10/24 09:31:36;;;;;;;8.38;3.05;;;13.80;51.70;;;;;;5055091;28;20052;-47
2021/10/24 09:34:20;;;;;;;7.70;2.95;;;14.10;51.40;;;;;;5054997;28;20112;-47
2021/10/24 09:36:49;;;;;;;5.53;3.28;;;14.30;51.70;;;;;;5073215;28;20021;-47
2021/10/24 09:39:14;;;;;;;6.38;2.75;;;14.00;52.30;;;;;;5073101;28;20032;-47
2021/10/24 09:41:40;;;;;;;5.05;2.63;;;14.20;52.20;;;;;;5073013;28;20020;-46
2021/10/24 09:44:17;;;;;;;9.07;3.10;;;14.50;51.30;;;;;;5072977;28;20350;-46
2021/10/24 09:46:57;;;;;;;3.42;2.20;;;15.30;49.30;;;;;;5055349;28;20052;-52
2021/10/24 09:49:23;;;;;;;3.80;2.13;;;15.40;47.70;;;;;;5055067;28;20090;-47
2021/10/24 09:51:51;;;;;;;5.47;3.03;;;14.60;49.20;;;;;;5072718;28;20028;-47
2021/10/24 09:54:21;;;;;;;4.35;2.72;;;14.20;51.20;;;;;;5072734;28;20115;-47
2021/10/24 09:56:48;;;;;;;8.30;2.33;;;13.90;51.20;;;;;;5054753;28;20025;-46
2021/10/24 09:59:16;;;;;;;9.65;2.22;;;14.20;51.00;;;;;;5072879;28;20472;-46
2021/10/24 10:01:44;;;;;;;5.40;2.72;;;14.30;50.80;;;;;;5054742;28;20083;-49
2021/10/24 10:04:11;;;;;;;7.35;2.25;;;14.30;50.10;;;;;;5072681;28;20029;-47
2021/10/24 10:06:38;;;;;;;5.50;1.92;;;14.40;49.20;;;;;;5072424;28;20052;-47
2021/10/24 10:09:03;;;;;;;4.28;2.33;;;14.30;49.80;;;;;;5072507;28;20021;-48
2021/10/24 10:11:46;;;;;;;5.78;2.13;;;13.90;49.70;;;;;;5073369;28;20028;-47
2021/10/24 10:14:29;;;;;;;5.25;2.17;;;13.80;51.00;;;;;;5055651;28;20029;-48
2021/10/24 10:17:08;;;;;;;4.32;2.03;;;13.00;53.10;;;;;;5072747;28;20104;-47
2021/10/24 10:19:38;;;;;;;4.45;2.40;;;12.60;54.10;;;;;;5072542;28;20016;-47
2021/10/24 10:22:24;;;;;;;6.22;2.28;;;12.30;55.50;;;;;;5072515;28;20127;-48
2021/10/24 10:25:00;;;;;;;3.10;1.63;;;12.00;56.70;;;;;;5072185;28;20029;-48
2021/10/24 10:27:35;;;;;;;5.30;2.22;;;12.10;56.30;;;;;;5072675;28;20035;-46
2021/10/24 10:30:05;;;;;;;5.28;2.03;;;12.10;55.90;;;;;;5072965;28;20035;-48
2021/10/24 10:32:41;;;;;;;6.22;2.72;;;12.30;55.90;;;;;;5072656;28;20436;-47
2021/10/24 10:35:12;;;;;;;8.43;3.80;;;12.30;55.50;;;;;;5072477;28;20032;-47
2021/10/24 10:37:51;;;;;;;6.50;1.83;;;12.50;55.40;;;;;;5076454;28;20107;-47
2021/10/24 10:40:24;;;;;;;6.88;2.40;;;12.50;55.40;;;;;;5076164;28;20028;-48
2021/10/24 10:42:50;;;;;;;3.53;2.05;;;12.50;55.30;;;;;;5076012;28;20431;-47
2021/10/24 10:45:16;;;;;;;7.05;2.53;;;12.50;54.80;;;;;;5076123;28;20031;-48
2021/10/24 10:47:57;;;;;;;3.28;1.95;;;12.70;55.30;;;;;;5076019;28;20381;-49
2021/10/24 10:50:33;;;;;;;2.70;2.05;;;12.80;53.70;;;;;;5075965;28;20028;-47
2021/10/24 10:53:04;;;;;;;4.53;2.10;;;12.80;53.90;;;;;;5075548;28;20443;-48
2021/10/24 10:56:13;;;;;;;4.97;2.58;;;12.80;53.30;;;;;;5075641;28;20020;-48
2021/10/24 10:58:43;;;;;;;4.07;1.52;;;13.00;53.80;;;;;;5061754;28;20036;-48
2021/10/24 11:01:19;;;;;;;6.10;2.22;;;14.00;49.80;;;;;;5076001;28;20100;-49
2021/10/24 11:03:48;;;;;;;5.25;1.63;;;14.80;48.40;;;;;;5075774;28;20028;-51
2021/10/24 11:06:22;;;;;;;6.22;2.60;;;15.20;47.10;;;;;;5075603;28;20120;-49
2021/10/24 11:08:50;;;;;;;1.92;1.38;;;15.20;47.30;;;;;;5075626;28;20428;-50
2021/10/24 11:11:41;;;;;;;6.60;1.67;;;14.90;47.50;;;;;;5075467;28;20383;-51
2021/10/24 11:14:16;;;;;;;5.18;2.00;;;14.10;49.30;;;;;;5075354;28;20103;-47
2021/10/24 11:16:49;;;;;;;1.85;1.67;;;13.80;49.80;;;;;;5074905;28;20042;-48
2021/10/24 11:21:58;;;;;;;4.82;2.47;;;13.80;49.60;;;;;;5075434;28;20028;-47
2021/10/24 11:24:33;;;;;;;5.75;1.95;;;13.70;50.20;;;;;;5057363;28;20039;-47
2021/10/24 11:27:00;;;;;;;7.78;2.92;;;13.70;50.10;;;;;;5075944;28;20135;-48
2021/10/24 11:29:27;;;;;;;6.90;3.33;;;13.60;50.80;;;;;;5075300;28;20036;-48
2021/10/24 11:32:21;;;;;;;2.40;1.88;;;13.70;51.10;;;;;;5075108;28;20025;-48
2021/10/24 11:34:47;;;;;;;6.22;2.45;;;13.80;50.70;;;;;;5075625;28;20439;-47
2021/10/24 11:37:13;;;;;;;6.07;1.98;;;13.80;50.80;;;;;;5075372;28;20075;-50
2021/10/24 11:39:40;;;;;;;3.22;1.55;;;13.80;50.60;;;;;;5075322;28;20024;-46
2021/10/24 11:42:15;;;;;;;1.85;1.33;;;14.00;49.90;;;;;;5075187;28;20176;-48
2021/10/24 11:44:43;;;;;;;1.60;1.42;;;14.00;50.30;;;;;;5058316;28;20020;-47
2021/10/24 11:47:14;;;;;;;4.03;1.70;;;13.80;50.60;;;;;;5074813;28;20047;-48
2021/10/24 11:49:46;;;;;;;2.05;1.45;;;14.00;50.80;;;;;;5075153;28;20032;-47
2021/10/24 11:52:42;;;;;;;3.85;1.90;;;14.10;50.00;;;;;;5075072;28;20048;-47
2021/10/24 11:55:10;;;;;;;6.70;1.48;;;14.10;49.90;;;;;;5058458;28;20036;-46
2021/10/24 11:57:59;;;;;;;6.05;1.70;;;14.20;50.00;;;;;;5074629;28;20029;-46
2021/10/24 12:03:21;;;;;;;3.65;2.00;;;14.20;49.40;;;;;;5075023;28;20066;-47
2021/10/24 12:05:47;;;;;;;8.40;1.80;;;14.30;48.60;;;;;;5074291;28;20048;-49
2021/10/24 12:08:13;;;;;;;3.72;2.08;;;14.40;47.90;;;;;;5074448;28;20027;-47
2021/10/24 12:10:46;;;;;;;2.35;1.60;;;14.40;48.10;;;;;;5074287;28;20515;-49
2021/10/24 12:13:31;;;;;;;3.65;1.70;;;14.30;48.60;;;;;;5074316;28;20020;-46
2021/10/24 12:15:57;;;;;;;4.30;1.50;;;14.50;48.70;;;;;;5074396;28;20111;-47
2021/10/24 12:18:27;;;;;;;4.10;1.60;;;14.60;48.70;;;;;;5074132;28;20112;-49
2021/10/24 12:21:01;;;;;;;3.63;1.77;;;14.60;47.90;;;;;;5074965;28;20098;-47
2021/10/24 12:23:29;;;;;;;6.47;1.65;;;14.80;46.60;;;;;;5074538;28;20024;-52
2021/10/24 12:25:57;;;;;;;5.03;1.95;;;14.80;47.30;;;;;;5074119;28;20082;-47
2021/10/24 12:28:33;;;;;;;3.60;1.70;;;14.80;47.10;;;;;;5074392;28;20503;-50
2021/10/24 12:31:01;;;;;;;3.17;1.60;;;14.80;47.50;;;;;;5074245;28;20032;-47
2021/10/24 12:33:35;;;;;;;3.78;1.40;;;14.80;47.90;;;;;;5074369;28;20166;-50
2021/10/24 12:36:06;;;;;;;5.90;1.30;;;15.20;45.70;;;;;;5074092;28;20032;-49
2021/10/24 12:38:51;;;;;;;6.70;1.77;;;15.30;45.70;;;;;;5073798;28;20089;-47
2021/10/24 12:41:35;;;;;;;1.42;1.20;;;15.10;46.20;;;;;;5073715;28;20024;-47
2021/10/24 12:44:23;;;;;;;3.80;1.42;;;15.10;46.40;;;;;;5073965;28;20028;-49
2021/10/24 12:46:50;;;;;;;2.47;1.15;;;15.00;46.30;;;;;;5074303;28;20377;-50
2021/10/24 12:49:18;;;;;;;4.70;1.10;;;15.00;45.40;;;;;;5073805;28;20036;-47
2021/10/24 12:51:47;;;;;;;2.45;1.35;;;15.10;46.00;;;;;;5073446;28;20127;-47
2021/10/24 12:54:29;;;;;;;4.78;1.70;;;15.20;45.30;;;;;;5074035;28;20418;-48
2021/10/24 12:56:55;;;;;;;3.58;1.42;;;15.40;45.60;;;;;;5074080;28;20023;-48
2021/10/24 12:59:20;;;;;;;5.30;1.70;;;15.50;45.10;;;;;;5072966;28;20024;-51